Nebo, Kentucky
Current Conditions -  °F | °C
As of 4:55 PM on Sunday 21 Dec 2014 (Local Time) from K2I0 Reporting Station
Clear Clear  
Wind Chill: 38°   Ceiling: Unl
Heat Index: 41°   Visibility: 10mi
Dew Point: 30°   Wind: 5mph
Humidity: 67%   Direction: 90°E
Pressure: 30.1"   Gusts: NA
Location:  37.38°N, 87.64°W
Report Text: K2I0 212255Z AUTO 09004KT 10SM CLR 05/M01 A3010 RMK AO2 T00481009
Loading
Personal Weather Stations






























Interactive Weather Map New forecast layout! Learn more

10-Day Weather Forecast

Advertisements
Track Severe Weather on mobile